createdAt,value
2023-09-02T00:01:53.985Z,15.11
2023-09-02T00:04:20.546Z,15.11
2023-09-02T00:06:47.093Z,15.10
2023-09-02T00:09:14.271Z,15.08
2023-09-02T00:11:40.804Z,15.06
2023-09-02T00:14:07.314Z,15.04
2023-09-02T00:16:33.785Z,15.02
2023-09-02T00:19:00.322Z,14.99
2023-09-02T00:21:27.008Z,14.94
2023-09-02T00:24:02.284Z,14.90
2023-09-02T00:26:30.906Z,14.87
2023-09-02T00:28:58.077Z,14.84
2023-09-02T00:31:24.672Z,14.80
2023-09-02T00:33:51.801Z,14.77
2023-09-02T00:36:18.351Z,14.73
2023-09-02T00:38:45.230Z,14.69
2023-09-02T00:41:26.038Z,14.66
2023-09-02T00:43:55.312Z,14.64
2023-09-02T00:46:22.722Z,14.63
2023-09-02T00:48:49.666Z,14.61
2023-09-02T00:51:16.176Z,14.59
2023-09-02T00:53:46.037Z,14.56
2023-09-02T00:56:15.083Z,14.52
2023-09-02T00:58:42.686Z,14.51
2023-09-02T01:01:11.116Z,14.46
2023-09-02T01:03:39.436Z,14.44
2023-09-02T01:06:08.400Z,14.38
2023-09-02T01:08:35.239Z,14.26
2023-09-02T01:11:02.663Z,14.12
2023-09-02T01:13:30.005Z,14.01
2023-09-02T01:15:57.136Z,14.00
2023-09-02T01:18:25.138Z,14.03
2023-09-02T01:21:23.466Z,14.03
2023-09-02T01:24:11.800Z,14.02
2023-09-02T01:27:12.040Z,13.96
2023-09-02T01:29:48.915Z,13.94
2023-09-02T01:32:16.657Z,13.90
2023-09-02T01:34:43.420Z,13.86
2023-09-02T01:37:10.492Z,13.78
2023-09-02T01:39:38.519Z,13.77
2023-09-02T01:42:10.696Z,13.76
2023-09-02T01:44:38.273Z,13.74
2023-09-02T01:47:05.684Z,13.69
2023-09-02T01:49:32.996Z,13.63
2023-09-02T01:52:00.226Z,13.54
2023-09-02T01:54:26.878Z,13.51
2023-09-02T01:56:54.437Z,13.52
2023-09-02T01:59:21.068Z,13.44
2023-09-02T02:01:47.643Z,13.35
2023-09-02T02:04:30.633Z,13.27
2023-09-02T02:07:04.757Z,13.30
2023-09-02T02:09:35.090Z,13.26
2023-09-02T02:12:03.167Z,13.16
2023-09-02T02:14:36.534Z,13.02
2023-09-02T02:17:06.401Z,12.94
2023-09-02T02:19:33.634Z,12.85
2023-09-02T02:22:00.112Z,12.82
2023-09-02T02:24:26.936Z,12.87
2023-09-02T02:26:53.795Z,12.93
2023-09-02T02:29:20.320Z,12.98
2023-09-02T02:31:46.846Z,13.06
2023-09-02T02:34:13.337Z,13.12
2023-09-02T02:36:39.864Z,13.13
2023-09-02T02:39:06.724Z,13.15
2023-09-02T02:41:33.525Z,13.17
2023-09-02T02:44:00.831Z,13.24
2023-09-02T02:46:27.427Z,13.27
2023-09-02T02:48:53.951Z,13.28
2023-09-02T02:51:20.470Z,13.29
2023-09-02T02:53:47.819Z,13.33
2023-09-02T02:56:14.573Z,13.33
2023-09-02T02:58:41.570Z,13.35
2023-09-02T03:01:14.926Z,13.37
2023-09-02T03:03:42.210Z,13.35
2023-09-02T03:06:08.986Z,13.38
2023-09-02T03:08:38.464Z,13.40
2023-09-02T03:11:06.745Z,13.42
2023-09-02T03:13:35.188Z,13.44
2023-09-02T03:16:09.917Z,13.42
2023-09-02T03:18:36.673Z,13.43
2023-09-02T03:21:04.486Z,13.44
2023-09-02T03:23:33.706Z,13.44
2023-09-02T03:26:16.468Z,13.43
2023-09-02T03:28:45.046Z,13.45
2023-09-02T03:31:12.333Z,13.43
2023-09-02T03:33:41.685Z,13.41
2023-09-02T03:36:16.938Z,13.45
2023-09-02T03:38:44.340Z,13.49
2023-09-02T03:41:12.491Z,13.55
2023-09-02T03:43:39.326Z,13.53
2023-09-02T03:46:05.956Z,13.47
2023-09-02T03:48:32.911Z,13.49
2023-09-02T03:51:01.780Z,13.58
2023-09-02T03:53:29.650Z,13.63
2023-09-02T03:55:56.189Z,13.66
2023-09-02T03:58:23.502Z,13.70
2023-09-02T04:00:50.055Z,13.75
2023-09-02T04:03:21.072Z,13.69
2023-09-02T04:05:49.318Z,13.61
2023-09-02T04:08:20.528Z,13.55
2023-09-02T04:10:52.505Z,13.53
2023-09-02T04:13:23.017Z,13.57
2023-09-02T04:15:50.071Z,13.61
2023-09-02T04:18:16.725Z,13.66
2023-09-02T04:20:43.187Z,13.66
2023-09-02T04:23:10.342Z,13.73
2023-09-02T04:25:47.832Z,13.73
2023-09-02T04:28:16.683Z,13.76
2023-09-02T04:30:44.668Z,13.85
2023-09-02T04:33:13.563Z,13.87
2023-09-02T04:35:44.933Z,13.93
2023-09-02T04:38:12.320Z,13.95
2023-09-02T04:40:43.620Z,13.98
2023-09-02T04:43:11.782Z,14.05
2023-09-02T04:45:40.872Z,14.11
2023-09-02T04:48:10.795Z,14.09
2023-09-02T04:50:39.341Z,14.07
2023-09-02T04:53:08.773Z,14.13
2023-09-02T04:55:42.931Z,14.18
2023-09-02T04:58:12.412Z,14.20
2023-09-02T05:00:41.295Z,14.21
2023-09-02T05:03:09.603Z,14.21
2023-09-02T05:05:37.136Z,14.26
2023-09-02T05:08:06.291Z,14.22
2023-09-02T05:10:33.122Z,14.18
2023-09-02T05:12:59.933Z,14.22
2023-09-02T05:15:28.667Z,14.24
2023-09-02T05:17:57.782Z,14.32
2023-09-02T05:20:25.368Z,14.39
2023-09-02T05:22:51.883Z,14.42
2023-09-02T05:25:20.544Z,14.44
2023-09-02T05:27:49.264Z,14.39
2023-09-02T05:30:15.864Z,14.40
2023-09-02T05:32:42.418Z,14.44
2023-09-02T05:35:09.145Z,14.46
2023-09-02T05:37:35.620Z,14.46
2023-09-02T05:40:02.146Z,14.53
2023-09-02T05:42:28.653Z,14.56
2023-09-02T05:44:55.174Z,14.57
2023-09-02T05:47:21.696Z,14.56
2023-09-02T05:49:48.163Z,14.60
2023-09-02T05:52:14.679Z,14.63
2023-09-02T05:54:41.215Z,14.68
2023-09-02T05:57:07.799Z,14.68
2023-09-02T05:59:34.310Z,14.74
2023-09-02T06:02:00.810Z,14.74
2023-09-02T06:04:27.456Z,14.78
2023-09-02T06:06:55.153Z,14.85
2023-09-02T06:09:21.791Z,14.87
2023-09-02T06:11:48.540Z,14.94
2023-09-02T06:14:15.176Z,14.95
2023-09-02T06:16:41.844Z,14.98
2023-09-02T06:19:08.387Z,15.02
2023-09-02T06:21:35.040Z,15.02
2023-09-02T06:24:01.837Z,14.98
2023-09-02T06:26:28.420Z,15.04
2023-09-02T06:28:54.930Z,15.10
2023-09-02T06:31:21.565Z,15.16
2023-09-02T06:33:48.111Z,15.24
2023-09-02T06:36:20.139Z,15.13
2023-09-02T06:38:47.687Z,15.03
2023-09-02T06:41:17.986Z,15.00
2023-09-02T06:43:44.723Z,15.14
2023-09-02T06:46:18.969Z,15.25
2023-09-02T06:48:45.971Z,15.32
2023-09-02T06:51:13.218Z,15.28
2023-09-02T06:53:40.600Z,15.33
2023-09-02T06:56:09.459Z,15.28
2023-09-02T06:58:38.978Z,15.37
2023-09-02T07:01:05.543Z,15.43
2023-09-02T07:03:32.459Z,15.51
2023-09-02T07:06:07.603Z,15.57
2023-09-02T07:08:34.161Z,15.59
2023-09-02T07:11:00.752Z,15.70
2023-09-02T07:13:27.241Z,15.75
2023-09-02T07:16:03.871Z,15.69
2023-09-02T07:18:30.844Z,15.77
2023-09-02T07:21:01.917Z,15.84
2023-09-02T07:23:29.656Z,15.84
2023-09-02T07:25:57.949Z,15.96
2023-09-02T07:28:24.456Z,16.01
2023-09-02T07:30:50.967Z,16.06
2023-09-02T07:33:17.958Z,16.06
2023-09-02T07:35:44.837Z,16.17
2023-09-02T07:38:11.913Z,16.25
2023-09-02T07:40:38.542Z,16.16
2023-09-02T07:43:05.056Z,16.18
2023-09-02T07:45:31.645Z,16.29
2023-09-02T07:47:58.236Z,16.35
2023-09-02T07:50:24.798Z,16.36
2023-09-02T07:52:51.436Z,16.45
2023-09-02T07:55:19.154Z,16.55
2023-09-02T07:57:45.945Z,16.61
2023-09-02T08:00:12.693Z,16.62
2023-09-02T08:02:39.727Z,16.60
2023-09-02T08:05:07.344Z,16.62
2023-09-02T08:07:33.834Z,16.67
2023-09-02T08:10:00.447Z,16.68
2023-09-02T08:12:26.946Z,16.73
2023-09-02T08:14:53.485Z,16.82
2023-09-02T08:17:20.913Z,16.82
2023-09-02T08:19:48.053Z,16.97
2023-09-02T08:22:15.212Z,17.10
2023-09-02T08:24:43.333Z,17.17
2023-09-02T08:27:10.074Z,17.14
2023-09-02T08:29:36.598Z,17.05
2023-09-02T08:32:03.287Z,17.15
2023-09-02T08:34:29.868Z,17.28
2023-09-02T08:36:56.385Z,17.29
2023-09-02T08:39:23.440Z,17.19
2023-09-02T08:41:51.101Z,16.88
2023-09-02T08:44:20.972Z,16.93
2023-09-02T08:46:50.377Z,17.00
2023-09-02T08:49:17.548Z,17.13
2023-09-02T08:51:44.747Z,17.11
2023-09-02T08:54:12.818Z,17.17
2023-09-02T08:56:43.670Z,17.26
2023-09-02T08:59:11.212Z,17.27
2023-09-02T09:01:47.160Z,17.38
2023-09-02T09:04:17.006Z,17.22
2023-09-02T09:06:43.551Z,17.27
2023-09-02T09:09:11.031Z,17.30
2023-09-02T09:11:43.213Z,17.35
2023-09-02T09:14:23.489Z,17.22
2023-09-02T09:16:53.800Z,17.28
2023-09-02T09:19:22.851Z,17.32
2023-09-02T09:21:49.523Z,17.47
2023-09-02T09:24:16.052Z,17.70
2023-09-02T09:26:43.751Z,17.76
2023-09-02T09:29:15.835Z,17.58
2023-09-02T09:31:43.379Z,17.58
2023-09-02T09:34:10.565Z,17.64
2023-09-02T09:36:37.597Z,17.81
2023-09-02T09:39:06.575Z,17.92
2023-09-02T09:41:34.811Z,17.92
2023-09-02T09:44:12.402Z,18.12
2023-09-02T09:46:44.720Z,18.27
2023-09-02T09:49:33.793Z,18.02
2023-09-02T09:52:00.277Z,17.91
2023-09-02T09:54:46.867Z,17.85
2023-09-02T09:57:29.289Z,18.16
2023-09-02T09:59:56.279Z,18.22
2023-09-02T10:02:23.073Z,18.15
2023-09-02T10:04:51.737Z,18.11
2023-09-02T10:07:25.992Z,18.13
2023-09-02T10:09:56.019Z,18.25
2023-09-02T10:12:23.797Z,18.33
2023-09-02T10:14:51.782Z,18.31
2023-09-02T10:17:19.135Z,18.25
2023-09-02T10:19:47.422Z,17.99
2023-09-02T10:22:19.886Z,18.14
2023-09-02T10:24:49.492Z,18.31
2023-09-02T10:27:19.116Z,18.62
2023-09-02T10:29:52.247Z,18.66
2023-09-02T10:32:23.993Z,18.61
2023-09-02T10:35:03.979Z,18.52
2023-09-02T10:37:42.822Z,18.66
2023-09-02T10:40:16.563Z,18.64
2023-09-02T10:42:43.375Z,18.54
2023-09-02T10:45:10.776Z,18.75
2023-09-02T10:47:37.703Z,18.62
2023-09-02T10:50:05.584Z,18.70
2023-09-02T10:52:32.163Z,18.73
2023-09-02T10:55:06.504Z,18.79
2023-09-02T10:57:45.209Z,18.89
2023-09-02T11:00:30.318Z,18.74
2023-09-02T11:02:58.871Z,18.67
2023-09-02T11:05:29.284Z,18.98
2023-09-02T11:07:56.476Z,19.37
2023-09-02T11:10:43.329Z,19.43
2023-09-02T11:13:10.087Z,19.58
2023-09-02T11:15:37.502Z,19.45
2023-09-02T11:18:38.452Z,19.42
2023-09-02T11:21:05.051Z,19.67
2023-09-02T11:23:34.211Z,19.66
2023-09-02T11:26:02.454Z,19.74
2023-09-02T11:28:29.430Z,19.59
2023-09-02T11:31:04.573Z,19.56
2023-09-02T11:33:31.644Z,19.49
2023-09-02T11:36:08.562Z,19.37
2023-09-02T11:38:35.335Z,19.55
2023-09-02T11:41:02.397Z,19.74
2023-09-02T11:43:31.398Z,19.92
2023-09-02T11:45:59.860Z,19.97
2023-09-02T11:48:30.701Z,20.18
2023-09-02T11:50:59.635Z,19.94
2023-09-02T11:53:28.221Z,19.74
2023-09-02T11:55:55.286Z,20.06
2023-09-02T11:58:21.846Z,20.00
2023-09-02T12:00:48.590Z,19.80
2023-09-02T12:03:29.069Z,20.03
2023-09-02T12:06:01.470Z,19.97
2023-09-02T12:08:30.793Z,19.77
2023-09-02T12:11:01.718Z,19.86
2023-09-02T12:13:29.638Z,20.34
2023-09-02T12:15:56.368Z,20.40
2023-09-02T12:18:24.974Z,20.57
2023-09-02T12:20:51.911Z,20.63
2023-09-02T12:23:18.915Z,20.45
2023-09-02T12:26:08.607Z,20.75
2023-09-02T12:28:35.247Z,20.72
2023-09-02T12:31:04.392Z,20.83
2023-09-02T12:33:31.364Z,20.95
2023-09-02T12:35:58.056Z,20.91
2023-09-02T12:38:25.065Z,21.23
2023-09-02T12:40:55.832Z,21.33
2023-09-02T12:43:29.974Z,21.10
2023-09-02T12:45:57.321Z,21.04
2023-09-02T12:48:24.199Z,20.94
2023-09-02T12:50:50.709Z,20.81
2023-09-02T12:53:17.853Z,20.60
2023-09-02T12:55:45.165Z,20.63
2023-09-02T12:58:11.786Z,20.77
2023-09-02T13:00:38.332Z,20.73
2023-09-02T13:03:05.245Z,21.19
2023-09-02T13:05:32.135Z,21.43
2023-09-02T13:07:59.430Z,21.81
2023-09-02T13:10:26.227Z,22.14
2023-09-02T13:12:52.899Z,22.07
2023-09-02T13:15:20.054Z,22.53
2023-09-02T13:17:47.526Z,21.97
2023-09-02T13:20:18.074Z,21.86
2023-09-02T13:22:47.173Z,21.71
2023-09-02T13:25:16.251Z,22.02
2023-09-02T13:27:43.088Z,22.17
2023-09-02T13:30:11.030Z,22.57
2023-09-02T13:32:39.625Z,23.15
2023-09-02T13:35:18.156Z,23.44
2023-09-02T13:37:47.675Z,22.96
2023-09-02T13:40:17.343Z,22.27
2023-09-02T13:42:45.284Z,21.79
2023-09-02T13:45:11.734Z,22.06
2023-09-02T13:47:50.529Z,22.55
2023-09-02T13:50:18.716Z,22.80
2023-09-02T13:52:51.574Z,23.15
2023-09-02T13:55:19.156Z,23.50
2023-09-02T13:57:45.888Z,23.80
2023-09-02T14:00:29.741Z,23.86
2023-09-02T14:02:56.878Z,23.24
2023-09-02T14:05:24.776Z,22.41
2023-09-02T14:07:53.240Z,22.39
2023-09-02T14:10:20.894Z,22.44
2023-09-02T14:12:48.617Z,22.38
2023-09-02T14:15:16.406Z,22.38
2023-09-02T14:17:43.645Z,22.05
2023-09-02T14:20:10.870Z,21.80
2023-09-02T14:22:37.320Z,21.92
2023-09-02T14:25:04.183Z,22.15
2023-09-02T14:27:30.697Z,22.08
2023-09-02T14:29:57.635Z,22.05
2023-09-02T14:32:24.234Z,22.40
2023-09-02T14:34:50.848Z,22.58
2023-09-02T14:37:19.142Z,22.52
2023-09-02T14:39:46.681Z,22.80
2023-09-02T14:42:13.263Z,22.97
2023-09-02T14:44:39.790Z,22.74
2023-09-02T14:47:08.193Z,22.61
2023-09-02T14:49:35.004Z,22.90
2023-09-02T14:52:02.156Z,23.19
2023-09-02T14:54:33.199Z,23.48
2023-09-02T14:57:02.490Z,23.71
2023-09-02T14:59:30.913Z,22.97
2023-09-02T15:01:57.640Z,22.82
2023-09-02T15:04:24.640Z,23.31
2023-09-02T15:06:52.742Z,22.85
2023-09-02T15:09:28.279Z,22.79
2023-09-02T15:11:54.840Z,22.56
2023-09-02T15:14:21.557Z,22.55
2023-09-02T15:16:48.122Z,22.25
2023-09-02T15:19:16.492Z,22.05
2023-09-02T15:21:43.120Z,21.85
2023-09-02T15:24:09.689Z,21.63
2023-09-02T15:26:38.876Z,21.50
2023-09-02T15:29:20.013Z,21.68
2023-09-02T15:31:48.719Z,21.67
2023-09-02T15:34:16.748Z,21.82
2023-09-02T15:36:44.007Z,21.66
2023-09-02T15:39:11.763Z,21.53
2023-09-02T15:41:39.882Z,21.61
2023-09-02T15:44:06.583Z,21.58
2023-09-02T15:46:33.192Z,21.60
2023-09-02T15:49:00.659Z,21.53
2023-09-02T15:51:27.191Z,21.63
2023-09-02T15:53:53.862Z,21.49
2023-09-02T15:56:20.379Z,21.34
2023-09-02T15:58:47.011Z,21.28
2023-09-02T16:01:13.582Z,21.30
2023-09-02T16:03:40.433Z,21.28
2023-09-02T16:06:07.117Z,21.09
2023-09-02T16:08:35.763Z,21.02
2023-09-02T16:11:03.850Z,20.96
2023-09-02T16:13:30.310Z,20.87
2023-09-02T16:15:56.954Z,20.81
2023-09-02T16:18:23.712Z,20.78
2023-09-02T16:20:52.502Z,20.78
2023-09-02T16:23:19.628Z,20.82
2023-09-02T16:25:46.247Z,20.73
2023-09-02T16:28:13.531Z,20.65
2023-09-02T16:30:40.086Z,20.58
2023-09-02T16:33:06.782Z,20.53
2023-09-02T16:35:33.420Z,20.44
2023-09-02T16:38:00.071Z,20.51
2023-09-02T16:40:29.867Z,20.47
2023-09-02T16:42:56.488Z,20.42
2023-09-02T16:45:28.076Z,20.32
2023-09-02T16:47:56.093Z,20.32
2023-09-02T16:50:23.335Z,20.26
2023-09-02T16:52:52.199Z,20.17
2023-09-02T16:55:20.329Z,20.11
2023-09-02T16:57:52.070Z,20.13
2023-09-02T17:00:20.600Z,20.09
2023-09-02T17:02:50.556Z,19.93
2023-09-02T17:05:20.297Z,19.83
2023-09-02T17:07:47.561Z,19.77
2023-09-02T17:10:21.380Z,19.69
2023-09-02T17:12:48.836Z,19.64
2023-09-02T17:15:17.324Z,19.57
2023-09-02T17:17:49.131Z,19.55
2023-09-02T17:20:28.361Z,19.46
2023-09-02T17:23:00.208Z,19.45
2023-09-02T17:25:28.934Z,19.40
2023-09-02T17:27:56.544Z,19.28
2023-09-02T17:30:23.451Z,19.18
2023-09-02T17:32:50.717Z,19.18
2023-09-02T17:35:17.625Z,19.07
2023-09-02T17:37:45.296Z,18.99
2023-09-02T17:40:12.930Z,18.89
2023-09-02T17:42:43.474Z,18.87
2023-09-02T17:45:12.013Z,18.77
2023-09-02T17:47:39.819Z,18.67
2023-09-02T17:50:09.331Z,18.66
2023-09-02T17:52:35.974Z,18.56
2023-09-02T17:55:02.943Z,18.50
2023-09-02T17:57:29.473Z,18.44
2023-09-02T17:59:56.382Z,18.36
2023-09-02T18:02:22.967Z,18.26
2023-09-02T18:04:49.739Z,18.15
2023-09-02T18:07:16.505Z,18.05
2023-09-02T18:09:45.102Z,17.96
2023-09-02T18:12:11.693Z,17.87
2023-09-02T18:14:42.635Z,17.79
2023-09-02T18:17:09.106Z,17.74
2023-09-02T18:19:35.594Z,17.71
2023-09-02T18:22:02.107Z,17.65
2023-09-02T18:24:28.595Z,17.55
2023-09-02T18:26:55.086Z,17.50
2023-09-02T18:29:21.593Z,17.44
2023-09-02T18:31:48.145Z,17.33
2023-09-02T18:34:14.660Z,17.20
2023-09-02T18:36:41.872Z,17.12
2023-09-02T18:39:08.425Z,17.06
2023-09-02T18:41:34.900Z,16.99
2023-09-02T18:44:01.385Z,16.96
2023-09-02T18:46:27.943Z,16.90
2023-09-02T18:48:54.486Z,16.85
2023-09-02T18:51:21.004Z,16.77
2023-09-02T18:53:47.542Z,16.77
2023-09-02T18:56:14.023Z,16.74
2023-09-02T18:58:44.421Z,16.68
2023-09-02T19:01:12.855Z,16.61
2023-09-02T19:03:44.567Z,16.56
2023-09-02T19:06:11.113Z,16.51
2023-09-02T19:08:39.239Z,16.46
2023-09-02T19:11:06.793Z,16.41
2023-09-02T19:13:33.624Z,16.38
2023-09-02T19:16:00.413Z,16.35
2023-09-02T19:18:27.365Z,16.31
2023-09-02T19:20:54.451Z,16.28
2023-09-02T19:23:21.017Z,16.20
2023-09-02T19:25:50.972Z,16.06
2023-09-02T19:28:17.741Z,16.00
2023-09-02T19:30:45.632Z,16.00
2023-09-02T19:33:12.172Z,16.00
2023-09-02T19:35:38.657Z,15.96
2023-09-02T19:38:05.186Z,15.94
2023-09-02T19:40:31.692Z,15.85
2023-09-02T19:42:58.208Z,15.76
2023-09-02T19:45:25.155Z,15.67
2023-09-02T19:47:51.794Z,15.64
2023-09-02T19:50:18.494Z,15.65
2023-09-02T19:52:45.003Z,15.63
2023-09-02T19:55:11.492Z,15.58
2023-09-02T19:57:38.061Z,15.54
2023-09-02T20:00:06.123Z,15.51
2023-09-02T20:02:38.566Z,15.47
2023-09-02T20:05:06.141Z,15.41
2023-09-02T20:07:32.792Z,15.36
2023-09-02T20:09:59.335Z,15.31
2023-09-02T20:12:25.853Z,15.26
2023-09-02T20:14:53.673Z,15.23
2023-09-02T20:17:20.156Z,15.21
2023-09-02T20:19:46.740Z,15.17
2023-09-02T20:22:13.284Z,15.09
2023-09-02T20:24:39.899Z,15.08
2023-09-02T20:27:06.448Z,15.05
2023-09-02T20:29:35.472Z,15.03
2023-09-02T20:32:01.924Z,15.00
2023-09-02T20:34:28.382Z,14.95
2023-09-02T20:36:54.905Z,14.90
2023-09-02T20:39:21.475Z,14.84
2023-09-02T20:41:48.989Z,14.81
2023-09-02T20:44:15.900Z,14.79
2023-09-02T20:46:42.574Z,14.78
2023-09-02T20:49:09.262Z,14.75
2023-09-02T20:51:36.075Z,14.73
2023-09-02T20:54:02.744Z,14.71
2023-09-02T20:56:31.561Z,14.66
2023-09-02T20:58:58.167Z,14.64
2023-09-02T21:01:24.790Z,14.61
2023-09-02T21:03:51.387Z,14.57
2023-09-02T21:06:17.960Z,14.51
2023-09-02T21:08:44.433Z,14.49
2023-09-02T21:11:15.445Z,14.48
2023-09-02T21:13:45.050Z,14.47
2023-09-02T21:16:21.942Z,14.44
2023-09-02T21:18:48.752Z,14.41
2023-09-02T21:21:23.910Z,14.37
2023-09-02T21:23:51.549Z,14.35
2023-09-02T21:26:18.553Z,14.33
2023-09-02T21:28:50.657Z,14.29
2023-09-02T21:31:17.999Z,14.24
2023-09-02T21:33:44.887Z,14.14
2023-09-02T21:36:19.075Z,14.05
2023-09-02T21:38:49.502Z,14.02
2023-09-02T21:41:16.180Z,13.98
2023-09-02T21:43:42.986Z,13.94
2023-09-02T21:46:11.534Z,13.89
2023-09-02T21:48:38.210Z,13.85
2023-09-02T21:51:06.855Z,13.85
2023-09-02T21:53:34.495Z,13.84
2023-09-02T21:56:01.233Z,13.83
2023-09-02T21:58:28.251Z,13.80
2023-09-02T22:01:02.714Z,13.78
2023-09-02T22:03:30.501Z,13.72
2023-09-02T22:06:11.186Z,13.71
2023-09-02T22:08:39.894Z,13.69
2023-09-02T22:11:06.618Z,13.69
2023-09-02T22:13:33.339Z,13.68
2023-09-02T22:15:59.971Z,13.64
2023-09-02T22:18:27.812Z,13.59
2023-09-02T22:20:56.339Z,13.57
2023-09-02T22:23:24.868Z,13.54
2023-09-02T22:25:56.595Z,13.49
2023-09-02T22:28:23.113Z,13.48
2023-09-02T22:30:50.959Z,13.44
2023-09-02T22:33:19.865Z,13.40
2023-09-02T22:35:46.501Z,13.39
2023-09-02T22:38:13.033Z,13.36
2023-09-02T22:40:39.484Z,13.34
2023-09-02T22:43:06.193Z,13.31
2023-09-02T22:45:36.736Z,13.26
2023-09-02T22:48:04.489Z,13.17
2023-09-02T22:50:35.138Z,13.13
2023-09-02T22:53:06.793Z,13.11
2023-09-02T22:55:34.586Z,13.10
2023-09-02T22:58:02.000Z,13.10
2023-09-02T23:00:29.579Z,13.06
2023-09-02T23:02:59.338Z,13.03
2023-09-02T23:05:33.133Z,13.01
2023-09-02T23:08:01.058Z,12.94
2023-09-02T23:10:29.174Z,12.90
2023-09-02T23:12:56.574Z,12.89
2023-09-02T23:15:24.283Z,12.85
2023-09-02T23:17:51.030Z,12.80
2023-09-02T23:20:17.772Z,12.74
2023-09-02T23:22:48.271Z,12.68
2023-09-02T23:25:15.465Z,12.56
2023-09-02T23:27:49.696Z,12.47
2023-09-02T23:30:16.883Z,12.46
2023-09-02T23:32:43.598Z,12.50
2023-09-02T23:35:10.187Z,12.52
2023-09-02T23:37:36.753Z,12.54
2023-09-02T23:40:03.429Z,12.52
2023-09-02T23:42:29.876Z,12.46
2023-09-02T23:44:56.413Z,12.38
2023-09-02T23:47:23.007Z,12.35
2023-09-02T23:49:50.691Z,12.28
2023-09-02T23:52:17.354Z,12.27
2023-09-02T23:54:43.917Z,12.27
2023-09-02T23:57:10.404Z,12.22
2023-09-02T23:59:36.980Z,12.16
